Time;durP1;ratioP1;P1;durP2;ratioP2;P2;SDS_P1;SDS_P2;PMS_P1;PMS_P2;Temp;Humidity;BMP_temperature;BMP_pressure;BME280_temperature;BME280_humidity;BME280_pressure;Samples;Min_cycle;Max_cycle;Signal;HPM_P1;HPM_P2
2023/01/15 00:00:48;;;;;;;4.65;1.00;;;6.40;99.90;;;;;;4956395;28;20555;-65
2023/01/15 00:03:14;;;;;;;11.80;1.40;;;6.40;99.90;;;;;;4983789;28;20493;-65
2023/01/15 00:05:40;;;;;;;9.23;1.27;;;6.40;99.90;;;;;;4953452;28;20476;-65
2023/01/15 00:08:06;;;;;;;12.23;1.52;;;6.40;99.90;;;;;;4988762;28;20053;-65
2023/01/15 00:10:31;;;;;;;8.15;1.42;;;6.40;99.90;;;;;;4975997;28;20101;-65
2023/01/15 00:12:57;;;;;;;15.07;1.25;;;6.30;99.90;;;;;;4990257;28;20050;-65
2023/01/15 00:15:23;;;;;;;10.57;1.17;;;6.30;99.90;;;;;;4989728;28;20081;-65
2023/01/15 00:17:49;;;;;;;19.00;1.55;;;6.30;99.90;;;;;;4988840;28;20048;-65
2023/01/15 00:20:15;;;;;;;14.65;1.75;;;6.30;99.90;;;;;;4990076;28;20046;-65
2023/01/15 00:22:41;;;;;;;12.05;1.10;;;6.30;99.90;;;;;;4989631;28;20046;-65
2023/01/15 00:27:53;;;;;;;11.65;1.77;;;6.30;99.90;;;;;;4989412;28;20050;-65
2023/01/15 00:30:18;;;;;;;9.52;1.10;;;6.30;99.90;;;;;;4989850;28;20038;-65
2023/01/15 00:32:44;;;;;;;16.27;2.10;;;6.30;99.90;;;;;;4989526;28;20065;-65
2023/01/15 00:35:19;;;;;;;13.30;1.88;;;6.30;99.90;;;;;;4989898;28;20097;-65
2023/01/15 00:37:45;;;;;;;7.72;1.35;;;6.30;99.90;;;;;;4989616;28;20052;-65
2023/01/15 00:40:12;;;;;;;18.15;1.65;;;6.30;99.90;;;;;;4990041;28;20121;-65
2023/01/15 00:42:38;;;;;;;12.20;1.77;;;6.30;99.90;;;;;;4988489;28;20101;-65
2023/01/15 00:45:09;;;;;;;11.65;1.75;;;6.30;99.90;;;;;;4989052;28;20046;-65
2023/01/15 00:47:40;;;;;;;17.73;1.50;;;6.30;99.90;;;;;;4971616;28;20545;-65
2023/01/15 00:50:09;;;;;;;10.13;1.13;;;6.30;99.90;;;;;;4989653;28;20053;-65
2023/01/15 00:52:35;;;;;;;15.55;2.50;;;6.30;99.90;;;;;;4987688;28;20047;-65
2023/01/15 00:55:01;;;;;;;10.93;2.40;;;6.30;99.90;;;;;;4989231;28;20575;-65
2023/01/15 00:57:27;;;;;;;12.95;1.77;;;6.30;99.90;;;;;;4989456;28;20046;-64
2023/01/15 00:59:52;;;;;;;9.10;1.25;;;6.30;99.90;;;;;;4988829;28;20042;-65
2023/01/15 01:02:18;;;;;;;25.52;2.15;;;6.30;99.90;;;;;;4989902;28;20100;-65
2023/01/15 01:04:44;;;;;;;7.07;0.85;;;6.30;99.90;;;;;;4988562;28;20038;-64
2023/01/15 01:07:10;;;;;;;13.48;2.10;;;6.30;99.90;;;;;;4955686;28;20054;-64
2023/01/15 01:09:36;;;;;;;10.05;1.38;;;6.30;99.90;;;;;;4971312;28;20046;-65
2023/01/15 01:12:01;;;;;;;14.63;1.63;;;6.40;99.90;;;;;;4989566;28;20117;-64
2023/01/15 01:14:28;;;;;;;19.95;2.10;;;6.40;99.90;;;;;;4988940;28;20046;-65
2023/01/15 01:16:53;;;;;;;14.07;1.75;;;6.40;99.90;;;;;;4988343;28;20526;-65
2023/01/15 01:19:22;;;;;;;13.40;1.50;;;6.30;99.90;;;;;;4988246;28;20136;-65
2023/01/15 01:21:49;;;;;;;14.32;1.77;;;6.30;99.90;;;;;;4988691;28;20038;-65
2023/01/15 01:24:19;;;;;;;13.52;2.10;;;6.40;99.90;;;;;;4989005;28;20485;-65
2023/01/15 01:26:46;;;;;;;13.23;2.22;;;6.30;99.90;;;;;;4987920;28;20053;-65
2023/01/15 01:29:13;;;;;;;9.65;1.80;;;6.30;99.90;;;;;;4989302;28;20077;-65
2023/01/15 01:31:39;;;;;;;7.28;0.90;;;6.30;99.90;;;;;;4973922;28;20061;-65
2023/01/15 01:34:05;;;;;;;18.58;2.00;;;6.20;99.90;;;;;;4989225;28;20426;-65
2023/01/15 01:36:34;;;;;;;17.50;2.30;;;6.20;99.90;;;;;;4988288;28;20039;-65
2023/01/15 01:39:00;;;;;;;18.60;1.88;;;6.20;99.90;;;;;;4988501;28;20046;-65
2023/01/15 01:41:27;;;;;;;11.25;2.05;;;6.30;99.90;;;;;;4988772;28;20038;-65
2023/01/15 01:43:57;;;;;;;10.35;1.10;;;6.30;99.90;;;;;;4988385;28;20043;-65
2023/01/15 01:46:24;;;;;;;16.25;1.98;;;6.30;99.90;;;;;;4971314;28;20555;-65
2023/01/15 01:49:12;;;;;;;12.90;1.70;;;6.20;99.90;;;;;;4987622;28;20117;-65
2023/01/15 01:51:42;;;;;;;10.07;1.83;;;6.20;99.90;;;;;;4988503;28;20525;-65
2023/01/15 01:54:10;;;;;;;17.27;2.53;;;6.20;99.90;;;;;;4970797;28;20571;-65
2023/01/15 01:56:36;;;;;;;13.15;1.95;;;6.30;99.90;;;;;;4986877;28;20516;-64
2023/01/15 01:59:05;;;;;;;4.22;0.93;;;6.30;99.90;;;;;;4970216;28;20113;-65
2023/01/15 02:01:31;;;;;;;18.00;1.88;;;6.20;99.90;;;;;;4993912;28;20057;-65
2023/01/15 02:03:57;;;;;;;17.02;3.28;;;6.20;99.90;;;;;;4991099;28;20042;-65
2023/01/15 02:06:25;;;;;;;13.73;2.17;;;6.20;99.90;;;;;;4988181;28;20129;-65
2023/01/15 02:08:51;;;;;;;13.15;2.03;;;6.30;99.90;;;;;;4987285;28;20038;-65
2023/01/15 02:11:20;;;;;;;18.73;2.22;;;6.30;99.90;;;;;;4988187;28;20046;-65
2023/01/15 02:14:02;;;;;;;11.73;1.55;;;6.30;99.90;;;;;;4987086;28;20070;-65
2023/01/15 02:16:40;;;;;;;15.27;1.95;;;6.30;99.90;;;;;;4988157;28;20359;-65
2023/01/15 02:19:15;;;;;;;27.83;3.55;;;6.20;99.90;;;;;;4987573;28;20034;-65
2023/01/15 02:21:44;;;;;;;15.05;2.20;;;6.30;99.90;;;;;;4987849;28;20173;-65
2023/01/15 02:24:28;;;;;;;14.40;1.95;;;6.30;99.90;;;;;;4987930;28;20089;-65
2023/01/15 02:27:07;;;;;;;11.65;1.08;;;6.30;99.90;;;;;;4987301;28;20046;-65
2023/01/15 02:30:02;;;;;;;16.25;1.90;;;6.30;99.90;;;;;;4987813;28;20108;-65
2023/01/15 02:32:33;;;;;;;8.15;1.00;;;6.30;99.90;;;;;;4987914;28;20055;-65
2023/01/15 02:35:11;;;;;;;20.42;2.10;;;6.30;99.90;;;;;;4987300;28;20473;-65
2023/01/15 02:37:45;;;;;;;14.45;2.25;;;6.30;99.90;;;;;;4987778;28;20152;-64
2023/01/15 02:40:19;;;;;;;8.05;1.25;;;6.20;99.90;;;;;;4970847;28;20088;-65
2023/01/15 02:42:47;;;;;;;15.10;1.80;;;6.30;99.90;;;;;;4987889;28;20489;-65
2023/01/15 02:45:22;;;;;;;12.90;1.98;;;6.30;99.90;;;;;;4987243;28;20049;-65
2023/01/15 02:47:53;;;;;;;11.55;1.33;;;6.30;99.90;;;;;;4987580;28;20479;-65
2023/01/15 02:50:24;;;;;;;9.73;1.30;;;6.20;99.90;;;;;;4987151;28;20042;-65
2023/01/15 02:52:55;;;;;;;14.63;1.50;;;6.20;99.90;;;;;;4987035;28;20046;-64
2023/01/15 02:55:28;;;;;;;22.45;3.17;;;6.20;99.90;;;;;;4987565;28;20126;-65
2023/01/15 02:57:59;;;;;;;19.13;1.63;;;6.20;99.90;;;;;;4969261;28;20125;-65
2023/01/15 03:00:28;;;;;;;19.67;2.95;;;6.20;99.90;;;;;;4987518;28;20059;-65
2023/01/15 03:03:00;;;;;;;15.05;2.30;;;6.20;99.90;;;;;;4988314;28;20050;-65
2023/01/15 03:05:31;;;;;;;20.25;1.50;;;6.20;99.90;;;;;;4988937;28;20051;-65
2023/01/15 03:08:01;;;;;;;19.48;2.28;;;6.20;99.90;;;;;;4987052;28;20437;-65
2023/01/15 03:10:49;;;;;;;35.42;3.58;;;6.20;99.90;;;;;;4969811;28;20093;-65
2023/01/15 03:13:33;;;;;;;12.35;2.38;;;6.20;99.90;;;;;;4976193;28;20511;-65
2023/01/15 03:19:08;;;;;;;16.25;2.72;;;6.20;99.90;;;;;;4987158;28;20140;-65
2023/01/15 03:21:45;;;;;;;13.88;1.98;;;6.20;99.90;;;;;;4969680;28;20647;-65
2023/01/15 03:24:13;;;;;;;10.25;1.25;;;6.20;99.90;;;;;;4986685;28;20137;-64
2023/01/15 03:26:39;;;;;;;6.25;1.15;;;6.30;99.90;;;;;;4986929;28;20053;-65
2023/01/15 03:29:07;;;;;;;15.02;1.80;;;6.20;99.90;;;;;;4973221;28;20042;-64
2023/01/15 03:31:35;;;;;;;18.15;2.45;;;6.30;99.90;;;;;;4987553;28;20174;-65
2023/01/15 03:34:01;;;;;;;5.38;1.00;;;6.30;99.90;;;;;;4986788;28;20046;-65
2023/01/15 03:36:27;;;;;;;6.55;0.88;;;6.30;99.90;;;;;;4987118;28;20039;-64
2023/01/15 03:38:53;;;;;;;16.98;2.40;;;6.30;99.90;;;;;;4986846;28;20050;-65
2023/01/15 03:41:41;;;;;;;13.68;2.08;;;6.30;99.90;;;;;;4987239;28;20082;-65
2023/01/15 03:44:34;;;;;;;12.65;1.75;;;6.30;99.90;;;;;;4981278;28;20054;-65
2023/01/15 03:47:28;;;;;;;19.08;2.45;;;6.30;99.90;;;;;;4975531;28;20054;-65
2023/01/15 03:50:29;;;;;;;17.27;1.85;;;6.30;99.90;;;;;;4970566;28;20473;-65
2023/01/15 03:53:16;;;;;;;15.73;1.92;;;6.30;99.90;;;;;;4976169;28;20043;-65
2023/01/15 03:55:45;;;;;;;16.38;2.45;;;6.30;99.90;;;;;;4980734;28;20465;-65
2023/01/15 03:58:47;;;;;;;20.23;2.50;;;6.30;99.90;;;;;;4975730;28;20050;-65
2023/01/15 04:01:17;;;;;;;15.43;2.20;;;6.30;99.90;;;;;;4914155;28;20056;-65
2023/01/15 04:03:45;;;;;;;12.02;1.48;;;6.20;99.90;;;;;;4994528;28;20047;-65
2023/01/15 04:06:11;;;;;;;9.82;1.35;;;6.20;99.90;;;;;;4993002;28;20385;-65
2023/01/15 04:08:39;;;;;;;17.13;1.67;;;6.20;99.90;;;;;;4990263;28;20449;-65
2023/01/15 04:11:05;;;;;;;10.35;1.77;;;6.20;99.90;;;;;;4989681;28;20591;-65
2023/01/15 04:13:31;;;;;;;15.00;2.00;;;6.10;99.90;;;;;;4989891;28;20073;-65
2023/01/15 04:15:57;;;;;;;11.85;1.95;;;6.10;99.90;;;;;;4985908;28;20054;-65
2023/01/15 04:18:23;;;;;;;8.32;1.60;;;6.20;99.90;;;;;;4971873;28;20129;-65
2023/01/15 04:20:49;;;;;;;15.63;2.28;;;6.20;99.90;;;;;;4972652;28;20050;-65
2023/01/15 04:23:15;;;;;;;14.57;1.70;;;6.10;99.90;;;;;;4972007;28;20120;-65
2023/01/15 04:25:41;;;;;;;4.78;0.93;;;6.10;99.90;;;;;;4990056;28;20196;-65
2023/01/15 04:28:08;;;;;;;11.98;2.00;;;6.10;99.90;;;;;;4989291;28;20498;-65
2023/01/15 04:30:35;;;;;;;17.23;2.10;;;6.10;99.90;;;;;;4990476;28;20050;-65
2023/01/15 04:33:01;;;;;;;15.73;2.10;;;6.20;99.90;;;;;;4990499;28;20050;-65
2023/01/15 04:35:27;;;;;;;15.52;1.85;;;6.20;99.90;;;;;;4972653;28;20039;-65
2023/01/15 04:37:55;;;;;;;16.65;2.00;;;6.20;99.90;;;;;;4989545;28;20050;-65
2023/01/15 04:45:58;;;;;;;15.15;1.75;;;6.10;99.90;;;;;;4975112;28;20050;-64
2023/01/15 04:48:24;;;;;;;16.52;1.90;;;6.10;99.90;;;;;;4972242;28;20084;-65
2023/01/15 04:50:50;;;;;;;10.50;1.63;;;6.10;99.90;;;;;;4989875;28;20054;-65
2023/01/15 04:53:16;;;;;;;12.77;1.85;;;6.00;99.90;;;;;;4988702;28;20565;-64
2023/01/15 04:55:41;;;;;;;13.75;1.70;;;6.10;99.90;;;;;;4988480;28;20065;-65
2023/01/15 04:58:07;;;;;;;16.65;1.77;;;6.00;99.90;;;;;;4989141;28;20090;-65
2023/01/15 05:00:33;;;;;;;11.20;1.27;;;6.00;99.90;;;;;;4989510;28;20069;-65
2023/01/15 05:02:59;;;;;;;15.68;1.77;;;6.00;99.90;;;;;;4995055;28;20481;-65
2023/01/15 05:05:24;;;;;;;16.60;3.03;;;6.00;99.90;;;;;;4989321;28;20035;-65
2023/01/15 05:07:50;;;;;;;4.47;0.98;;;6.00;99.90;;;;;;4971238;28;20128;-65
2023/01/15 05:10:16;;;;;;;14.82;2.13;;;5.90;99.90;;;;;;4988852;28;20046;-64
2023/01/15 05:12:42;;;;;;;22.30;4.40;;;5.90;99.90;;;;;;4988809;28;20069;-65
2023/01/15 05:15:08;;;;;;;12.80;2.00;;;5.90;99.90;;;;;;4989571;28;20397;-64
2023/01/15 05:17:34;;;;;;;19.88;1.70;;;5.90;99.90;;;;;;4988646;28;20077;-65
2023/01/15 05:19:59;;;;;;;18.90;2.72;;;5.90;99.90;;;;;;4971501;28;20132;-65
2023/01/15 05:22:26;;;;;;;16.48;2.10;;;5.90;99.90;;;;;;4954987;28;20631;-65
2023/01/15 05:24:51;;;;;;;13.32;1.73;;;5.90;99.90;;;;;;4988722;28;20088;-65
2023/01/15 05:27:17;;;;;;;23.40;2.72;;;5.90;99.90;;;;;;4988386;28;20178;-65
2023/01/15 05:29:43;;;;;;;19.35;2.40;;;5.80;99.90;;;;;;4987367;28;20053;-65
2023/01/15 05:32:09;;;;;;;8.00;1.52;;;5.80;99.90;;;;;;4989339;28;20059;-64
2023/01/15 05:34:35;;;;;;;11.32;1.90;;;5.80;99.90;;;;;;4993346;28;20054;-64
2023/01/15 05:37:01;;;;;;;12.50;1.88;;;5.80;99.90;;;;;;4988836;28;20038;-64
2023/01/15 05:39:26;;;;;;;31.52;2.25;;;5.80;99.90;;;;;;4987270;28;20073;-64
2023/01/15 05:41:52;;;;;;;14.35;2.13;;;5.80;99.90;;;;;;4970428;28;20129;-64
2023/01/15 05:44:21;;;;;;;12.25;1.95;;;5.70;99.90;;;;;;4970972;28;20041;-64
2023/01/15 05:46:47;;;;;;;11.40;1.88;;;5.80;99.90;;;;;;4988444;28;20082;-64
2023/01/15 05:49:17;;;;;;;18.38;2.28;;;5.80;99.90;;;;;;4988285;28;20058;-64
2023/01/15 05:51:43;;;;;;;5.13;1.13;;;5.70;99.90;;;;;;4991928;28;20088;-64
2023/01/15 05:54:12;;;;;;;7.07;1.70;;;5.70;99.90;;;;;;4988357;28;20456;-64
2023/01/15 05:56:38;;;;;;;11.95;1.60;;;5.70;99.90;;;;;;4987686;28;20108;-64
2023/01/15 05:59:06;;;;;;;15.05;2.58;;;5.80;99.90;;;;;;4988175;28;20121;-64
2023/01/15 06:01:32;;;;;;;4.60;1.08;;;5.70;99.90;;;;;;4993675;28;20420;-64
2023/01/15 06:04:02;;;;;;;19.48;1.88;;;5.70;99.90;;;;;;4988247;28;20039;-64
2023/01/15 06:06:28;;;;;;;;;;;5.70;99.90;;;;;;4970859;28;20069;-64
2023/01/15 06:08:54;;;;;;;5.13;0.35;;;5.70;99.90;;;;;;4987632;28;19922;-64
2023/01/15 06:11:20;;;;;;;14.27;2.08;;;5.70;99.90;;;;;;4986235;28;20054;-64
2023/01/15 06:13:46;;;;;;;15.35;2.65;;;5.70;99.90;;;;;;4988047;28;20064;-64
2023/01/15 06:16:12;;;;;;;21.35;3.05;;;5.60;99.90;;;;;;4987750;28;20140;-64
2023/01/15 06:18:38;;;;;;;16.67;1.88;;;5.60;99.90;;;;;;4994429;28;20050;-64
2023/01/15 06:21:06;;;;;;;15.82;2.28;;;5.60;99.90;;;;;;4990512;28;20046;-65
2023/01/15 06:23:35;;;;;;;14.43;1.52;;;5.60;99.90;;;;;;4988304;28;20046;-64
2023/01/15 06:26:16;;;;;;;8.52;1.42;;;5.60;99.90;;;;;;4987300;28;20050;-64
2023/01/15 06:28:43;;;;;;;6.95;1.25;;;5.50;99.90;;;;;;4969976;28;20145;-64
2023/01/15 06:31:11;;;;;;;9.07;1.52;;;5.50;99.90;;;;;;4987023;28;20042;-64
2023/01/15 06:33:37;;;;;;;6.35;1.20;;;5.50;99.90;;;;;;4987391;28;20121;-64
2023/01/15 06:36:05;;;;;;;5.97;1.20;;;5.50;99.90;;;;;;4988073;28;20197;-64
2023/01/15 06:38:31;;;;;;;14.13;1.23;;;5.40;99.90;;;;;;4987202;28;20134;-64
2023/01/15 06:41:01;;;;;;;8.57;0.95;;;5.40;99.90;;;;;;4954343;28;20493;-64
2023/01/15 06:48:57;;;;;;;14.45;2.22;;;5.40;99.90;;;;;;4987397;28;20046;-64
2023/01/15 06:51:24;;;;;;;20.38;1.95;;;5.40;99.90;;;;;;4986653;28;20042;-65
2023/01/15 06:53:50;;;;;;;6.18;1.52;;;5.40;99.90;;;;;;4954111;28;20046;-64
2023/01/15 06:56:15;;;;;;;7.57;1.00;;;5.40;99.90;;;;;;4987268;28;20058;-64
2023/01/15 06:58:42;;;;;;;22.35;2.65;;;5.40;99.90;;;;;;4986349;28;20146;-65
2023/01/15 07:01:09;;;;;;;7.90;1.30;;;5.30;99.90;;;;;;4989980;28;20638;-64
2023/01/15 07:03:35;;;;;;;3.78;0.77;;;5.30;99.90;;;;;;4989231;28;20144;-64
2023/01/15 07:06:06;;;;;;;14.70;1.83;;;5.30;99.90;;;;;;4987488;28;20395;-64
2023/01/15 07:08:31;;;;;;;;;;;5.30;99.90;;;;;;4987519;28;20133;-64
2023/01/15 07:11:03;;;;;;;16.52;1.73;;;5.30;99.90;;;;;;4969886;28;20048;-64
2023/01/15 07:13:28;;;;;;;11.52;1.77;;;5.30;99.90;;;;;;4986476;28;20409;-63
2023/01/15 07:15:56;;;;;;;11.07;1.67;;;5.30;99.90;;;;;;4987389;28;20428;-64
2023/01/15 07:18:22;;;;;;;13.30;2.45;;;5.30;99.90;;;;;;4989532;28;20933;-64
2023/01/15 07:20:48;;;;;;;10.63;1.05;;;5.20;99.90;;;;;;4957321;28;20081;-64
2023/01/15 07:23:13;;;;;;;13.85;1.88;;;5.20;99.90;;;;;;4991252;28;20401;-64
2023/01/15 07:25:39;;;;;;;14.95;2.50;;;5.10;99.90;;;;;;4989333;28;20054;-64
2023/01/15 07:28:05;;;;;;;24.95;2.55;;;5.10;99.90;;;;;;4991058;28;20046;-64
2023/01/15 07:30:31;;;;;;;8.10;1.05;;;5.10;99.90;;;;;;4990498;28;20039;-64
2023/01/15 07:32:56;;;;;;;12.07;1.58;;;5.00;99.90;;;;;;4991950;28;20050;-64
2023/01/15 07:35:23;;;;;;;14.55;1.92;;;5.00;99.90;;;;;;4990222;28;20136;-64
2023/01/15 07:37:52;;;;;;;13.98;1.88;;;5.00;99.90;;;;;;4973189;28;20508;-64
2023/01/15 07:40:17;;;;;;;7.40;1.05;;;5.10;99.90;;;;;;4990947;28;20050;-64
2023/01/15 07:51:17;;;;;;;6.43;0.55;;;5.20;99.90;;;;;;4949169;29;20078;-64
2023/01/15 07:53:43;;;;;;;10.75;1.25;;;5.20;99.90;;;;;;4973290;28;20096;-64
2023/01/15 07:56:10;;;;;;;8.18;1.30;;;5.10;99.90;;;;;;4975064;28;20042;-64
2023/01/15 07:58:35;;;;;;;3.33;0.82;;;5.30;99.90;;;;;;4990462;28;20034;-64
2023/01/15 08:01:01;;;;;;;9.27;2.40;;;5.30;99.90;;;;;;4991329;28;20073;-64
2023/01/15 08:03:27;;;;;;;20.63;2.35;;;5.20;99.90;;;;;;4957193;28;20046;-64
2023/01/15 08:05:52;;;;;;;10.07;1.52;;;5.30;99.90;;;;;;4989062;28;20138;-64
2023/01/15 08:08:18;;;;;;;8.93;1.58;;;5.30;99.90;;;;;;4988991;28;20051;-64
2023/01/15 08:15:11;;;;;;;7.25;1.08;;;5.30;99.90;;;;;;4988230;28;20100;-64
2023/01/15 08:16:15;;;;;;;5.32;0.57;;;5.30;99.90;;;;;;4990187;28;20054;-64
2023/01/15 08:18:41;;;;;;;6.57;1.33;;;5.40;99.90;;;;;;4989467;28;20401;-64
2023/01/15 08:21:14;;;;;;;8.18;1.83;;;5.40;99.90;;;;;;4972018;28;20049;-63
2023/01/15 08:23:42;;;;;;;8.73;1.45;;;5.40;99.90;;;;;;4978107;28;20109;-64
2023/01/15 08:26:08;;;;;;;10.63;1.20;;;5.50;99.90;;;;;;4968874;28;20513;-64
2023/01/15 08:28:33;;;;;;;12.52;2.05;;;5.50;99.90;;;;;;4969900;28;20051;-64
2023/01/15 08:30:59;;;;;;;4.20;0.98;;;5.50;99.90;;;;;;4974932;28;20043;-64
2023/01/15 08:33:25;;;;;;;12.70;1.70;;;5.50;99.90;;;;;;4978467;28;20532;-63
2023/01/15 08:35:50;;;;;;;4.72;0.60;;;5.50;99.90;;;;;;4983634;28;20477;-63
2023/01/15 08:38:16;;;;;;;8.60;1.38;;;5.50;99.90;;;;;;4989899;28;20073;-64
2023/01/15 08:40:57;;;;;;;8.15;0.95;;;5.60;99.90;;;;;;4989184;28;20074;-64
2023/01/15 08:43:27;;;;;;;11.10;1.50;;;5.60;99.90;;;;;;4989728;28;20057;-64
2023/01/15 08:45:56;;;;;;;3.85;1.17;;;5.60;99.90;;;;;;4968201;28;20085;-63
2023/01/15 08:48:22;;;;;;;11.30;1.38;;;5.70;99.90;;;;;;4985647;28;20104;-64
2023/01/15 08:50:49;;;;;;;6.43;1.05;;;5.70;99.90;;;;;;4987792;28;20400;-64
2023/01/15 08:53:16;;;;;;;6.57;1.17;;;5.60;99.90;;;;;;4960225;28;20056;-64
2023/01/15 08:55:42;;;;;;;8.65;1.55;;;5.60;99.90;;;;;;4988749;28;20066;-63
2023/01/15 08:58:07;;;;;;;5.78;1.10;;;5.60;99.90;;;;;;4989330;28;20066;-63
2023/01/15 09:00:33;;;;;;;7.55;0.90;;;5.60;99.90;;;;;;4970065;28;20532;-63
2023/01/15 09:02:59;;;;;;;8.63;1.20;;;5.60;99.90;;;;;;4969837;28;20047;-63
2023/01/15 09:05:26;;;;;;;8.02;1.52;;;5.60;99.90;;;;;;4977516;28;20041;-64
2023/01/15 09:07:53;;;;;;;10.32;0.95;;;5.50;99.90;;;;;;4954294;28;20105;-64
2023/01/15 09:10:20;;;;;;;9.95;0.80;;;5.50;99.90;;;;;;4974264;28;20480;-63
2023/01/15 09:12:46;;;;;;;5.15;0.95;;;5.50;99.90;;;;;;4970785;28;20045;-63
2023/01/15 09:15:12;;;;;;;3.97;0.80;;;5.60;99.90;;;;;;4985384;28;20046;-64
2023/01/15 09:17:39;;;;;;;5.57;1.00;;;5.50;99.90;;;;;;4984212;28;20185;-63
2023/01/15 09:20:08;;;;;;;11.13;1.75;;;5.40;99.90;;;;;;4981777;28;20119;-63
2023/01/15 09:22:34;;;;;;;14.27;1.08;;;5.40;99.90;;;;;;4972500;28;20045;-63
2023/01/15 09:25:00;;;;;;;15.07;1.65;;;5.30;99.90;;;;;;4980714;28;20397;-63
2023/01/15 09:27:27;;;;;;;3.65;1.05;;;5.10;99.90;;;;;;4977942;28;20092;-63
2023/01/15 09:29:53;;;;;;;9.00;0.75;;;5.00;99.90;;;;;;4980644;28;20130;-64
2023/01/15 09:32:18;;;;;;;15.38;1.40;;;5.00;99.90;;;;;;4977473;28;20062;-64
2023/01/15 09:34:46;;;;;;;5.88;0.85;;;4.90;99.90;;;;;;4970033;28;20489;-64
2023/01/15 09:37:11;;;;;;;5.28;0.90;;;4.90;99.90;;;;;;4978381;28;20058;-64
2023/01/15 09:39:38;;;;;;;4.20;0.90;;;4.90;99.90;;;;;;4970457;28;20372;-64
2023/01/15 09:42:12;;;;;;;13.15;1.80;;;5.00;99.90;;;;;;4980963;28;20505;-64
2023/01/15 09:45:00;;;;;;;5.40;1.20;;;5.00;99.90;;;;;;4968248;28;20114;-64
2023/01/15 09:47:42;;;;;;;15.88;1.38;;;5.00;99.90;;;;;;4969699;28;20097;-64
2023/01/15 09:50:43;;;;;;;16.58;2.25;;;5.10;99.90;;;;;;4970223;28;20054;-64
2023/01/15 09:53:33;;;;;;;8.48;1.35;;;5.00;99.90;;;;;;4987126;28;20077;-64
2023/01/15 09:56:01;;;;;;;16.23;1.75;;;5.00;99.90;;;;;;4982399;28;20043;-64
2023/01/15 09:58:39;;;;;;;5.30;1.23;;;5.10;99.90;;;;;;4978749;28;20050;-64
2023/01/15 10:01:05;;;;;;;11.00;1.05;;;5.20;99.90;;;;;;4980579;28;20102;-64
2023/01/15 10:04:27;;;;;;;6.72;0.95;;;5.30;99.90;;;;;;4978829;28;20042;-64
2023/01/15 10:07:21;;;;;;;2.33;0.47;;;5.30;99.90;;;;;;4935073;28;20053;-64
2023/01/15 10:10:02;;;;;;;5.93;0.73;;;5.50;99.90;;;;;;4933318;28;20059;-64
2023/01/15 10:12:43;;;;;;;12.55;1.45;;;5.60;99.90;;;;;;4960690;28;20117;-64
2023/01/15 10:15:27;;;;;;;3.65;0.52;;;5.70;99.90;;;;;;4964408;28;20049;-64
2023/01/15 10:17:56;;;;;;;2.53;0.57;;;5.80;99.90;;;;;;4950567;28;20523;-64
2023/01/15 10:20:59;;;;;;;11.20;1.25;;;5.90;99.90;;;;;;4966377;28;20050;-64
2023/01/15 10:23:36;;;;;;;12.50;2.28;;;6.00;99.90;;;;;;4967936;28;20133;-64
2023/01/15 10:26:39;;;;;;;8.00;1.58;;;6.20;99.90;;;;;;4968268;28;20095;-64
2023/01/15 10:29:05;;;;;;;7.65;0.90;;;6.30;99.90;;;;;;4960520;28;20043;-64
2023/01/15 10:31:40;;;;;;;11.95;1.30;;;6.40;99.90;;;;;;4953275;28;20055;-65
2023/01/15 10:34:05;;;;;;;7.05;1.00;;;6.50;99.90;;;;;;4964828;28;20466;-64
2023/01/15 10:36:37;;;;;;;7.60;1.20;;;6.50;99.90;;;;;;4958802;28;20045;-64
2023/01/15 10:39:30;;;;;;;7.35;1.05;;;6.40;99.90;;;;;;4965151;28;20054;-64
2023/01/15 10:42:21;;;;;;;7.75;1.17;;;6.40;99.90;;;;;;4969218;28;20035;-64
2023/01/15 10:44:57;;;;;;;8.82;1.15;;;6.40;99.90;;;;;;4967446;28;20047;-64
2023/01/15 10:47:31;;;;;;;1.48;0.40;;;6.50;99.90;;;;;;4965901;28;20055;-64
2023/01/15 10:49:58;;;;;;;11.98;1.77;;;6.50;99.90;;;;;;4953194;28;20077;-64
2023/01/15 10:52:28;;;;;;;6.93;1.17;;;6.50;99.90;;;;;;4958373;28;20054;-64
2023/01/15 10:55:03;;;;;;;7.43;1.33;;;6.60;99.90;;;;;;4961022;28;20050;-64
2023/01/15 10:57:45;;;;;;;5.13;1.27;;;6.70;99.90;;;;;;4954251;28;20074;-64
2023/01/15 11:00:12;;;;;;;8.63;0.98;;;6.70;99.90;;;;;;4958129;28;20058;-64
2023/01/15 11:02:43;;;;;;;6.45;1.42;;;6.70;99.90;;;;;;4956139;28;20112;-64
2023/01/15 11:05:14;;;;;;;7.97;0.93;;;6.70;99.90;;;;;;4962556;28;20042;-64
2023/01/15 11:07:46;;;;;;;9.60;1.55;;;6.70;99.90;;;;;;4967093;28;20438;-64
2023/01/15 11:10:16;;;;;;;5.95;1.05;;;6.80;99.90;;;;;;4967207;28;20117;-65
2023/01/15 11:21:30;;;;;;;9.10;1.45;;;6.70;99.90;;;;;;4985653;28;20524;-64
2023/01/15 11:23:59;;;;;;;8.98;1.30;;;6.70;99.90;;;;;;4969834;28;20049;-64
2023/01/15 11:26:28;;;;;;;4.35;1.02;;;6.70;99.90;;;;;;4986131;28;20043;-64
2023/01/15 11:28:55;;;;;;;12.32;1.50;;;6.70;99.90;;;;;;4970226;28;20115;-64
2023/01/15 11:31:21;;;;;;;5.72;0.75;;;6.70;99.90;;;;;;4985549;28;20268;-64
2023/01/15 11:34:01;;;;;;;9.60;1.55;;;6.90;99.90;;;;;;4996280;28;20031;-65
2023/01/15 11:36:28;;;;;;;;;;;7.00;99.90;;;;;;4981498;28;20109;-63
2023/01/15 11:38:54;;;;;;;8.27;1.67;;;7.20;99.90;;;;;;4986573;28;19956;-63
2023/01/15 11:52:51;;;;;;;1.13;0.70;;;7.30;99.90;;;;;;4974371;28;20042;-64
2023/01/15 11:55:20;;;;;;;8.00;2.30;;;7.20;99.90;;;;;;4973964;28;20751;-63
2023/01/15 11:57:48;;;;;;;9.45;1.40;;;7.20;99.90;;;;;;4971328;28;20049;-63
2023/01/15 12:00:29;;;;;;;7.43;1.15;;;7.20;99.90;;;;;;4955262;28;20177;-64
2023/01/15 12:03:11;;;;;;;8.23;1.80;;;7.10;99.90;;;;;;4978365;28;20054;-63
2023/01/15 12:06:04;;;;;;;17.35;2.15;;;7.10;99.90;;;;;;4976328;28;21145;-63
2023/01/15 12:08:50;;;;;;;11.63;1.55;;;7.10;99.90;;;;;;4980535;28;20043;-64
2023/01/15 12:11:24;;;;;;;12.43;1.67;;;7.00;99.90;;;;;;4982642;28;20508;-64
2023/01/15 12:14:28;;;;;;;14.30;1.58;;;7.00;99.90;;;;;;4980615;28;20120;-64
2023/01/15 12:17:16;;;;;;;14.02;1.30;;;7.00;99.90;;;;;;4981681;28;20074;-63
2023/01/15 12:20:01;;;;;;;6.70;0.65;;;6.90;99.90;;;;;;4972173;28;20077;-63
2023/01/15 12:22:35;;;;;;;8.13;1.88;;;6.90;99.90;;;;;;4986545;28;20046;-63
2023/01/15 12:25:04;;;;;;;14.40;1.77;;;6.80;99.90;;;;;;4983877;28;20042;-63
2023/01/15 12:27:51;;;;;;;7.60;0.93;;;6.80;99.90;;;;;;4977187;28;20042;-63
2023/01/15 12:30:39;;;;;;;9.25;1.42;;;6.70;99.90;;;;;;4987255;28;20405;-63
2023/01/15 12:33:39;;;;;;;8.45;1.45;;;6.60;99.90;;;;;;4972262;28;20050;-63
2023/01/15 12:36:27;;;;;;;6.57;1.10;;;6.60;99.90;;;;;;4981619;28;20163;-63
2023/01/15 12:39:00;;;;;;;12.18;2.03;;;6.60;99.90;;;;;;4977913;28;20049;-63
2023/01/15 12:48:10;;;;;;;8.20;1.90;;;6.20;99.90;;;;;;4984779;28;20050;-62
2023/01/15 12:50:48;;;;;;;5.72;1.45;;;5.70;99.90;;;;;;4973882;28;20070;-62
2023/01/15 12:53:20;;;;;;;3.42;0.70;;;5.30;99.90;;;;;;4980906;28;20049;-62
2023/01/15 12:56:08;;;;;;;2.85;0.73;;;5.00;99.90;;;;;;4969808;28;20054;-62
2023/01/15 12:59:03;;;;;;;2.10;0.50;;;5.00;99.90;;;;;;4988366;28;20043;-62
2023/01/15 13:01:55;;;;;;;1.35;0.20;;;5.00;99.90;;;;;;4988169;28;20074;-63
2023/01/15 13:04:31;;;;;;;2.35;0.60;;;5.00;99.90;;;;;;4979761;28;20118;-63
2023/01/15 13:07:07;;;;;;;2.70;0.47;;;5.10;99.90;;;;;;4986532;28;20050;-62
2023/01/15 13:09:38;;;;;;;0.20;0.20;;;5.20;99.90;;;;;;4985921;28;20050;-63
2023/01/15 13:12:13;;;;;;;1.15;0.22;;;5.20;99.90;;;;;;4988476;28;20467;-63
2023/01/15 13:14:40;;;;;;;1.27;0.40;;;5.20;99.90;;;;;;4987714;28;20042;-62
2023/01/15 13:17:21;;;;;;;1.38;0.32;;;5.30;99.90;;;;;;4978677;28;20031;-63
2023/01/15 13:20:13;;;;;;;1.98;0.35;;;5.30;99.90;;;;;;4975408;28;20058;-63
2023/01/15 13:22:52;;;;;;;2.92;0.63;;;5.30;99.90;;;;;;4980526;28;20512;-63
2023/01/15 13:25:21;;;;;;;1.70;0.30;;;5.30;99.90;;;;;;4987399;28;20587;-63
2023/01/15 13:27:56;;;;;;;2.10;0.40;;;5.30;99.90;;;;;;4987100;28;20501;-63
2023/01/15 13:30:56;;;;;;;5.90;0.75;;;5.40;99.90;;;;;;4987529;28;20085;-63
2023/01/15 13:33:30;;;;;;;1.70;0.33;;;5.40;99.90;;;;;;4969596;28;20038;-63
2023/01/15 13:36:07;;;;;;;2.38;0.32;;;5.40;99.90;;;;;;4988214;28;20306;-63
2023/01/15 13:38:40;;;;;;;1.10;0.40;;;5.30;99.90;;;;;;4986116;28;20046;-63
2023/01/15 13:41:08;;;;;;;4.45;0.70;;;5.40;99.90;;;;;;4988731;28;20053;-63
2023/01/15 13:43:41;;;;;;;4.40;0.50;;;5.40;99.90;;;;;;4969996;28;20049;-63
2023/01/15 13:46:10;;;;;;;2.88;0.57;;;5.40;99.90;;;;;;4988026;28;20046;-62
2023/01/15 13:48:43;;;;;;;2.88;0.50;;;5.40;99.90;;;;;;4987451;28;20042;-62
2023/01/15 13:51:25;;;;;;;1.17;0.65;;;5.40;99.90;;;;;;4966023;28;20595;-62
2023/01/15 13:53:51;;;;;;;2.50;0.60;;;5.40;99.90;;;;;;4988263;28;20078;-63
2023/01/15 13:56:32;;;;;;;2.40;0.47;;;5.40;99.90;;;;;;4970465;28;20057;-62
2023/01/15 13:59:00;;;;;;;4.47;0.60;;;5.40;99.90;;;;;;4989742;28;20089;-63
2023/01/15 14:01:29;;;;;;;1.15;0.50;;;5.40;99.90;;;;;;4992668;28;20038;-62
2023/01/15 14:04:11;;;;;;;0.25;0.10;;;5.40;99.90;;;;;;4987724;28;20046;-63
2023/01/15 14:06:50;;;;;;;6.43;0.65;;;5.40;99.90;;;;;;4987861;28;20092;-62
2023/01/15 14:09:16;;;;;;;2.42;0.32;;;5.40;99.90;;;;;;4968711;28;20064;-62